sensor_id;sensor_type;location;lat;lon;timestamp;P1;P2;P0
28647;PMS5003;17137;51.494;-0.262;2024-02-26T00:00:24;7;6;
28647;PMS5003;17137;51.494;-0.262;2024-02-26T00:00:54;9;6;
28647;PMS5003;17137;51.494;-0.262;2024-02-26T00:01:24;9;6;
28647;PMS5003;17137;51.494;-0.262;2024-02-26T00:01:55;9;6;
28647;PMS5003;17137;51.494;-0.262;2024-02-26T00:02:26;10;7;
28647;PMS5003;17137;51.494;-0.262;2024-02-26T00:02:56;10;7;
28647;PMS5003;17137;51.494;-0.262;2024-02-26T00:03:27;10;7;
28647;PMS5003;17137;51.494;-0.262;2024-02-26T00:03:57;10;6;
28647;PMS5003;17137;51.494;-0.262;2024-02-26T00:04:27;10;6;
28647;PMS5003;17137;51.494;-0.262;2024-02-26T00:04:58;10;6;
28647;PMS5003;17137;51.494;-0.262;2024-02-26T00:05:28;10;6;
28647;PMS5003;17137;51.494;-0.262;2024-02-26T00:05:58;10;6;
28647;PMS5003;17137;51.494;-0.262;2024-02-26T00:06:29;10;6;
28647;PMS5003;17137;51.494;-0.262;2024-02-26T00:07:00;10;6;
28647;PMS5003;17137;51.494;-0.262;2024-02-26T00:07:30;7;7;
28647;PMS5003;17137;51.494;-0.262;2024-02-26T00:08:01;7;7;
28647;PMS5003;17137;51.494;-0.262;2024-02-26T00:08:31;7;7;
28647;PMS5003;17137;51.494;-0.262;2024-02-26T00:09:02;7;7;
28647;PMS5003;17137;51.494;-0.262;2024-02-26T00:09:32;6;6;
28647;PMS5003;17137;51.494;-0.262;2024-02-26T00:10:03;6;6;
28647;PMS5003;17137;51.494;-0.262;2024-02-26T00:10:34;6;6;
28647;PMS5003;17137;51.494;-0.262;2024-02-26T00:11:05;6;6;
28647;PMS5003;17137;51.494;-0.262;2024-02-26T00:11:35;6;6;
28647;PMS5003;17137;51.494;-0.262;2024-02-26T00:12:06;6;6;
28647;PMS5003;17137;51.494;-0.262;2024-02-26T00:12:37;6;6;
28647;PMS5003;17137;51.494;-0.262;2024-02-26T00:13:07;6;6;
28647;PMS5003;17137;51.494;-0.262;2024-02-26T00:13:38;6;6;
28647;PMS5003;17137;51.494;-0.262;2024-02-26T00:14:08;6;6;
28647;PMS5003;17137;51.494;-0.262;2024-02-26T00:14:44;6;6;
28647;PMS5003;17137;51.494;-0.262;2024-02-26T00:15:43;11;7;
28647;PMS5003;17137;51.494;-0.262;2024-02-26T00:16:14;11;7;
28647;PMS5003;17137;51.494;-0.262;2024-02-26T00:16:44;11;6;
28647;PMS5003;17137;51.494;-0.262;2024-02-26T00:17:15;11;6;
28647;PMS5003;17137;51.494;-0.262;2024-02-26T00:17:45;11;6;
28647;PMS5003;17137;51.494;-0.262;2024-02-26T00:18:16;10;6;
28647;PMS5003;17137;51.494;-0.262;2024-02-26T00:18:46;10;6;
28647;PMS5003;17137;51.494;-0.262;2024-02-26T00:19:17;10;6;
28647;PMS5003;17137;51.494;-0.262;2024-02-26T00:19:47;11;6;
28647;PMS5003;17137;51.494;-0.262;2024-02-26T00:20:17;11;6;
28647;PMS5003;17137;51.494;-0.262;2024-02-26T00:20:48;11;6;
28647;PMS5003;17137;51.494;-0.262;2024-02-26T00:21:18;11;6;
28647;PMS5003;17137;51.494;-0.262;2024-02-26T00:21:49;11;6;
28647;PMS5003;17137;51.494;-0.262;2024-02-26T00:22:19;11;6;
28647;PMS5003;17137;51.494;-0.262;2024-02-26T00:22:50;11;6;
28647;PMS5003;17137;51.494;-0.262;2024-02-26T00:23:21;6;6;
28647;PMS5003;17137;51.494;-0.262;2024-02-26T00:23:52;6;6;
28647;PMS5003;17137;51.494;-0.262;2024-02-26T00:24:22;6;6;
28647;PMS5003;17137;51.494;-0.262;2024-02-26T00:24:53;5;5;
28647;PMS5003;17137;51.494;-0.262;2024-02-26T00:25:23;5;5;
28647;PMS5003;17137;51.494;-0.262;2024-02-26T00:25:54;5;5;
28647;PMS5003;17137;51.494;-0.262;2024-02-26T00:26:24;5;5;
28647;PMS5003;17137;51.494;-0.262;2024-02-26T00:26:55;5;5;
28647;PMS5003;17137;51.494;-0.262;2024-02-26T00:27:25;5;5;
28647;PMS5003;17137;51.494;-0.262;2024-02-26T00:27:56;5;5;
28647;PMS5003;17137;51.494;-0.262;2024-02-26T00:28:26;5;5;
28647;PMS5003;17137;51.494;-0.262;2024-02-26T00:28:56;5;5;
28647;PMS5003;17137;51.494;-0.262;2024-02-26T00:29:27;5;5;
28647;PMS5003;17137;51.494;-0.262;2024-02-26T00:29:57;5;5;
28647;PMS5003;17137;51.494;-0.262;2024-02-26T00:30:28;5;5;
28647;PMS5003;17137;51.494;-0.262;2024-02-26T00:30:58;7;5;
28647;PMS5003;17137;51.494;-0.262;2024-02-26T00:31:29;7;5;
28647;PMS5003;17137;51.494;-0.262;2024-02-26T00:31:59;7;5;
28647;PMS5003;17137;51.494;-0.262;2024-02-26T00:32:30;7;5;
28647;PMS5003;17137;51.494;-0.262;2024-02-26T00:33:00;7;5;
28647;PMS5003;17137;51.494;-0.262;2024-02-26T00:33:31;7;5;
28647;PMS5003;17137;51.494;-0.262;2024-02-26T00:34:01;7;5;
28647;PMS5003;17137;51.494;-0.262;2024-02-26T00:34:32;7;5;
28647;PMS5003;17137;51.494;-0.262;2024-02-26T00:35:02;7;5;
28647;PMS5003;17137;51.494;-0.262;2024-02-26T00:35:33;7;5;
28647;PMS5003;17137;51.494;-0.262;2024-02-26T00:36:03;7;5;
28647;PMS5003;17137;51.494;-0.262;2024-02-26T00:36:34;7;5;
28647;PMS5003;17137;51.494;-0.262;2024-02-26T00:37:05;7;5;
28647;PMS5003;17137;51.494;-0.262;2024-02-26T00:37:35;7;5;
28647;PMS5003;17137;51.494;-0.262;2024-02-26T00:38:06;7;5;
28647;PMS5003;17137;51.494;-0.262;2024-02-26T00:38:36;7;5;
28647;PMS5003;17137;51.494;-0.262;2024-02-26T00:39:07;7;5;
28647;PMS5003;17137;51.494;-0.262;2024-02-26T00:39:37;6;4;
28647;PMS5003;17137;51.494;-0.262;2024-02-26T00:40:08;6;4;
28647;PMS5003;17137;51.494;-0.262;2024-02-26T00:40:39;4;4;
28647;PMS5003;17137;51.494;-0.262;2024-02-26T00:41:09;4;4;
28647;PMS5003;17137;51.494;-0.262;2024-02-26T00:41:40;4;4;
28647;PMS5003;17137;51.494;-0.262;2024-02-26T00:42:10;4;4;
28647;PMS5003;17137;51.494;-0.262;2024-02-26T00:42:40;4;4;
28647;PMS5003;17137;51.494;-0.262;2024-02-26T00:43:11;4;4;
28647;PMS5003;17137;51.494;-0.262;2024-02-26T00:43:41;4;4;
28647;PMS5003;17137;51.494;-0.262;2024-02-26T00:44:12;4;4;
28647;PMS5003;17137;51.494;-0.262;2024-02-26T00:44:42;4;4;
28647;PMS5003;17137;51.494;-0.262;2024-02-26T00:45:13;6;4;
28647;PMS5003;17137;51.494;-0.262;2024-02-26T00:45:44;6;4;
28647;PMS5003;17137;51.494;-0.262;2024-02-26T00:46:14;6;4;
28647;PMS5003;17137;51.494;-0.262;2024-02-26T00:46:45;6;4;
28647;PMS5003;17137;51.494;-0.262;2024-02-26T00:47:15;6;4;
28647;PMS5003;17137;51.494;-0.262;2024-02-26T00:47:45;2;2;
28647;PMS5003;17137;51.494;-0.262;2024-02-26T00:48:16;2;2;
28647;PMS5003;17137;51.494;-0.262;2024-02-26T00:48:46;2;2;
28647;PMS5003;17137;51.494;-0.262;2024-02-26T00:49:16;2;2;
28647;PMS5003;17137;51.494;-0.262;2024-02-26T00:49:47;2;2;
28647;PMS5003;17137;51.494;-0.262;2024-02-26T00:50:17;2;2;
28647;PMS5003;17137;51.494;-0.262;2024-02-26T00:50:47;2;2;
28647;PMS5003;17137;51.494;-0.262;2024-02-26T00:51:18;2;2;
28647;PMS5003;17137;51.494;-0.262;2024-02-26T00:51:48;2;2;
28647;PMS5003;17137;51.494;-0.262;2024-02-26T00:52:19;2;2;
28647;PMS5003;17137;51.494;-0.262;2024-02-26T00:52:49;2;2;
28647;PMS5003;17137;51.494;-0.262;2024-02-26T00:53:19;2;2;
28647;PMS5003;17137;51.494;-0.262;2024-02-26T00:53:50;2;2;
28647;PMS5003;17137;51.494;-0.262;2024-02-26T00:54:21;4;3;
28647;PMS5003;17137;51.494;-0.262;2024-02-26T00:54:51;4;3;
28647;PMS5003;17137;51.494;-0.262;2024-02-26T00:55:22;4;3;
28647;PMS5003;17137;51.494;-0.262;2024-02-26T00:55:52;2;2;
28647;PMS5003;17137;51.494;-0.262;2024-02-26T00:56:22;2;2;
28647;PMS5003;17137;51.494;-0.262;2024-02-26T00:56:53;2;2;
28647;PMS5003;17137;51.494;-0.262;2024-02-26T00:57:23;2;2;
28647;PMS5003;17137;51.494;-0.262;2024-02-26T00:57:54;2;2;
28647;PMS5003;17137;51.494;-0.262;2024-02-26T00:58:24;2;2;
28647;PMS5003;17137;51.494;-0.262;2024-02-26T00:58:55;1;1;
28647;PMS5003;17137;51.494;-0.262;2024-02-26T00:59:25;1;1;
28647;PMS5003;17137;51.494;-0.262;2024-02-26T00:59:56;1;1;
28647;PMS5003;17137;51.494;-0.262;2024-02-26T01:00:26;2;2;
28647;PMS5003;17137;51.494;-0.262;2024-02-26T01:00:57;2;2;
28647;PMS5003;17137;51.494;-0.262;2024-02-26T01:01:27;2;2;
28647;PMS5003;17137;51.494;-0.262;2024-02-26T01:01:58;2;2;
28647;PMS5003;17137;51.494;-0.262;2024-02-26T01:02:28;2;2;
28647;PMS5003;17137;51.494;-0.262;2024-02-26T01:02:58;2;2;
28647;PMS5003;17137;51.494;-0.262;2024-02-26T01:03:29;1;1;
28647;PMS5003;17137;51.494;-0.262;2024-02-26T01:03:59;2;1;
28647;PMS5003;17137;51.494;-0.262;2024-02-26T01:04:30;2;1;
28647;PMS5003;17137;51.494;-0.262;2024-02-26T01:05:00;2;1;
28647;PMS5003;17137;51.494;-0.262;2024-02-26T01:05:31;1;0;
28647;PMS5003;17137;51.494;-0.262;2024-02-26T01:06:01;1;0;
28647;PMS5003;17137;51.494;-0.262;2024-02-26T01:06:37;1;0;
28647;PMS5003;17137;51.494;-0.262;2024-02-26T01:07:07;0;0;
28647;PMS5003;17137;51.494;-0.262;2024-02-26T01:07:38;0;0;
28647;PMS5003;17137;51.494;-0.262;2024-02-26T01:08:08;0;0;
28647;PMS5003;17137;51.494;-0.262;2024-02-26T01:08:39;0;0;
28647;PMS5003;17137;51.494;-0.262;2024-02-26T01:09:09;0;0;
28647;PMS5003;17137;51.494;-0.262;2024-02-26T01:09:40;0;0;
28647;PMS5003;17137;51.494;-0.262;2024-02-26T01:10:10;1;1;
28647;PMS5003;17137;51.494;-0.262;2024-02-26T01:10:40;1;1;
28647;PMS5003;17137;51.494;-0.262;2024-02-26T01:11:11;1;1;
28647;PMS5003;17137;51.494;-0.262;2024-02-26T01:12:10;2;2;
28647;PMS5003;17137;51.494;-0.262;2024-02-26T01:12:40;2;2;
28647;PMS5003;17137;51.494;-0.262;2024-02-26T01:13:11;2;2;
28647;PMS5003;17137;51.494;-0.262;2024-02-26T01:13:41;2;2;
28647;PMS5003;17137;51.494;-0.262;2024-02-26T01:14:12;2;2;
28647;PMS5003;17137;51.494;-0.262;2024-02-26T01:14:42;2;2;
28647;PMS5003;17137;51.494;-0.262;2024-02-26T01:15:13;2;2;
28647;PMS5003;17137;51.494;-0.262;2024-02-26T01:15:43;2;2;
28647;PMS5003;17137;51.494;-0.262;2024-02-26T01:16:14;2;2;
28647;PMS5003;17137;51.494;-0.262;2024-02-26T01:16:44;2;2;
28647;PMS5003;17137;51.494;-0.262;2024-02-26T01:17:15;2;2;
28647;PMS5003;17137;51.494;-0.262;2024-02-26T01:17:45;2;2;
28647;PMS5003;17137;51.494;-0.262;2024-02-26T01:18:15;2;2;
28647;PMS5003;17137;51.494;-0.262;2024-02-26T01:18:46;2;2;
28647;PMS5003;17137;51.494;-0.262;2024-02-26T01:19:16;1;1;
28647;PMS5003;17137;51.494;-0.262;2024-02-26T01:19:46;2;0;
28647;PMS5003;17137;51.494;-0.262;2024-02-26T01:20:17;2;0;
28647;PMS5003;17137;51.494;-0.262;2024-02-26T01:20:47;2;0;
28647;PMS5003;17137;51.494;-0.262;2024-02-26T01:21:18;2;1;
28647;PMS5003;17137;51.494;-0.262;2024-02-26T01:21:48;2;1;
28647;PMS5003;17137;51.494;-0.262;2024-02-26T01:22:19;2;1;
28647;PMS5003;17137;51.494;-0.262;2024-02-26T01:22:49;2;1;
28647;PMS5003;17137;51.494;-0.262;2024-02-26T01:23:19;2;1;
28647;PMS5003;17137;51.494;-0.262;2024-02-26T01:23:50;2;1;
28647;PMS5003;17137;51.494;-0.262;2024-02-26T01:24:20;2;1;
28647;PMS5003;17137;51.494;-0.262;2024-02-26T01:24:51;2;1;
28647;PMS5003;17137;51.494;-0.262;2024-02-26T01:25:21;2;1;
28647;PMS5003;17137;51.494;-0.262;2024-02-26T01:25:52;1;1;
28647;PMS5003;17137;51.494;-0.262;2024-02-26T01:26:22;1;1;
28647;PMS5003;17137;51.494;-0.262;2024-02-26T01:26:52;1;1;
28647;PMS5003;17137;51.494;-0.262;2024-02-26T01:27:23;1;1;
28647;PMS5003;17137;51.494;-0.262;2024-02-26T01:27:53;3;1;
28647;PMS5003;17137;51.494;-0.262;2024-02-26T01:28:24;3;1;
28647;PMS5003;17137;51.494;-0.262;2024-02-26T01:28:54;3;1;
28647;PMS5003;17137;51.494;-0.262;2024-02-26T01:29:25;3;1;
28647;PMS5003;17137;51.494;-0.262;2024-02-26T01:29:55;3;1;
28647;PMS5003;17137;51.494;-0.262;2024-02-26T01:30:26;3;1;
28647;PMS5003;17137;51.494;-0.262;2024-02-26T01:30:56;3;2;
28647;PMS5003;17137;51.494;-0.262;2024-02-26T01:31:26;3;2;
28647;PMS5003;17137;51.494;-0.262;2024-02-26T01:31:57;3;2;
28647;PMS5003;17137;51.494;-0.262;2024-02-26T01:32:27;3;1;
28647;PMS5003;17137;51.494;-0.262;2024-02-26T01:32:58;3;1;
28647;PMS5003;17137;51.494;-0.262;2024-02-26T01:33:28;3;1;
28647;PMS5003;17137;51.494;-0.262;2024-02-26T01:33:58;3;1;
28647;PMS5003;17137;51.494;-0.262;2024-02-26T01:34:29;3;1;
28647;PMS5003;17137;51.494;-0.262;2024-02-26T01:34:59;3;1;
28647;PMS5003;17137;51.494;-0.262;2024-02-26T01:35:29;2;2;
28647;PMS5003;17137;51.494;-0.262;2024-02-26T01:36:05;1;1;
28647;PMS5003;17137;51.494;-0.262;2024-02-26T01:36:36;1;1;
28647;PMS5003;17137;51.494;-0.262;2024-02-26T01:37:06;1;1;
28647;PMS5003;17137;51.494;-0.262;2024-02-26T01:37:36;1;1;
28647;PMS5003;17137;51.494;-0.262;2024-02-26T01:38:07;1;1;
28647;PMS5003;17137;51.494;-0.262;2024-02-26T01:38:37;1;1;
28647;PMS5003;17137;51.494;-0.262;2024-02-26T01:39:08;1;1;
28647;PMS5003;17137;51.494;-0.262;2024-02-26T01:39:38;1;1;
28647;PMS5003;17137;51.494;-0.262;2024-02-26T01:40:09;1;1;
28647;PMS5003;17137;51.494;-0.262;2024-02-26T01:40:41;1;1;
28647;PMS5003;17137;51.494;-0.262;2024-02-26T01:41:13;1;1;
28647;PMS5003;17137;51.494;-0.262;2024-02-26T01:41:43;1;1;
28647;PMS5003;17137;51.494;-0.262;2024-02-26T01:42:14;1;1;
28647;PMS5003;17137;51.494;-0.262;2024-02-26T01:42:45;1;1;
28647;PMS5003;17137;51.494;-0.262;2024-02-26T01:43:15;1;1;
28647;PMS5003;17137;51.494;-0.262;2024-02-26T01:43:46;1;1;
28647;PMS5003;17137;51.494;-0.262;2024-02-26T01:44:16;2;2;
28647;PMS5003;17137;51.494;-0.262;2024-02-26T01:44:47;2;2;
28647;PMS5003;17137;51.494;-0.262;2024-02-26T01:45:17;2;2;
28647;PMS5003;17137;51.494;-0.262;2024-02-26T01:45:48;2;2;
28647;PMS5003;17137;51.494;-0.262;2024-02-26T01:46:18;2;2;
28647;PMS5003;17137;51.494;-0.262;2024-02-26T01:46:50;2;2;
28647;PMS5003;17137;51.494;-0.262;2024-02-26T01:47:21;2;2;
28647;PMS5003;17137;51.494;-0.262;2024-02-26T01:47:52;2;2;
28647;PMS5003;17137;51.494;-0.262;2024-02-26T01:48:24;2;2;
28647;PMS5003;17137;51.494;-0.262;2024-02-26T01:48:55;2;2;
28647;PMS5003;17137;51.494;-0.262;2024-02-26T01:49:25;2;2;
28647;PMS5003;17137;51.494;-0.262;2024-02-26T01:49:56;2;2;
28647;PMS5003;17137;51.494;-0.262;2024-02-26T01:50:27;2;2;
28647;PMS5003;17137;51.494;-0.262;2024-02-26T01:50:58;2;2;
28647;PMS5003;17137;51.494;-0.262;2024-02-26T01:51:29;2;2;
28647;PMS5003;17137;51.494;-0.262;2024-02-26T01:52:00;2;2;
28647;PMS5003;17137;51.494;-0.262;2024-02-26T01:52:32;5;2;
28647;PMS5003;17137;51.494;-0.262;2024-02-26T01:53:03;5;2;
28647;PMS5003;17137;51.494;-0.262;2024-02-26T01:53:34;5;1;
28647;PMS5003;17137;51.494;-0.262;2024-02-26T01:54:05;5;1;
28647;PMS5003;17137;51.494;-0.262;2024-02-26T01:54:37;5;1;
28647;PMS5003;17137;51.494;-0.262;2024-02-26T01:55:10;5;2;
28647;PMS5003;17137;51.494;-0.262;2024-02-26T01:55:40;5;2;
28647;PMS5003;17137;51.494;-0.262;2024-02-26T01:56:11;5;2;
28647;PMS5003;17137;51.494;-0.262;2024-02-26T01:56:43;5;1;
28647;PMS5003;17137;51.494;-0.262;2024-02-26T01:57:14;5;1;
28647;PMS5003;17137;51.494;-0.262;2024-02-26T01:57:45;5;1;
28647;PMS5003;17137;51.494;-0.262;2024-02-26T01:58:17;5;1;
28647;PMS5003;17137;51.494;-0.262;2024-02-26T01:58:47;5;1;
28647;PMS5003;17137;51.494;-0.262;2024-02-26T01:59:18;5;1;
28647;PMS5003;17137;51.494;-0.262;2024-02-26T01:59:49;5;1;
28647;PMS5003;17137;51.494;-0.262;2024-02-26T02:00:20;5;1;
28647;PMS5003;17137;51.494;-0.262;2024-02-26T02:00:51;2;0;
28647;PMS5003;17137;51.494;-0.262;2024-02-26T02:01:22;2;0;
28647;PMS5003;17137;51.494;-0.262;2024-02-26T02:01:57;2;0;
28647;PMS5003;17137;51.494;-0.262;2024-02-26T02:02:30;2;0;
28647;PMS5003;17137;51.494;-0.262;2024-02-26T02:03:01;2;0;
28647;PMS5003;17137;51.494;-0.262;2024-02-26T02:03:33;1;0;
28647;PMS5003;17137;51.494;-0.262;2024-02-26T02:04:04;1;0;
28647;PMS5003;17137;51.494;-0.262;2024-02-26T02:04:34;1;0;
28647;PMS5003;17137;51.494;-0.262;2024-02-26T02:05:06;2;1;
28647;PMS5003;17137;51.494;-0.262;2024-02-26T02:05:38;2;1;
28647;PMS5003;17137;51.494;-0.262;2024-02-26T02:06:09;2;1;
28647;PMS5003;17137;51.494;-0.262;2024-02-26T02:06:39;2;0;
28647;PMS5003;17137;51.494;-0.262;2024-02-26T02:07:12;2;0;
28647;PMS5003;17137;51.494;-0.262;2024-02-26T02:07:43;2;0;
28647;PMS5003;17137;51.494;-0.262;2024-02-26T02:08:13;1;1;
28647;PMS5003;17137;51.494;-0.262;2024-02-26T02:08:44;1;1;
28647;PMS5003;17137;51.494;-0.262;2024-02-26T02:09:14;2;0;
28647;PMS5003;17137;51.494;-0.262;2024-02-26T02:09:45;2;0;
28647;PMS5003;17137;51.494;-0.262;2024-02-26T02:10:15;2;0;
28647;PMS5003;17137;51.494;-0.262;2024-02-26T02:10:46;2;0;
28647;PMS5003;17137;51.494;-0.262;2024-02-26T02:11:18;2;0;
28647;PMS5003;17137;51.494;-0.262;2024-02-26T02:11:48;2;0;
28647;PMS5003;17137;51.494;-0.262;2024-02-26T02:12:19;2;0;
28647;PMS5003;17137;51.494;-0.262;2024-02-26T02:12:51;2;0;
28647;PMS5003;17137;51.494;-0.262;2024-02-26T02:13:22;2;0;
28647;PMS5003;17137;51.494;-0.262;2024-02-26T02:13:52;2;0;
28647;PMS5003;17137;51.494;-0.262;2024-02-26T02:14:22;2;1;
28647;PMS5003;17137;51.494;-0.262;2024-02-26T02:14:55;2;1;
28647;PMS5003;17137;51.494;-0.262;2024-02-26T02:15:25;2;1;
28647;PMS5003;17137;51.494;-0.262;2024-02-26T02:15:56;2;0;
28647;PMS5003;17137;51.494;-0.262;2024-02-26T02:16:26;2;0;
28647;PMS5003;17137;51.494;-0.262;2024-02-26T02:16:56;2;0;
28647;PMS5003;17137;51.494;-0.262;2024-02-26T02:17:27;3;3;
28647;PMS5003;17137;51.494;-0.262;2024-02-26T02:17:58;3;3;
28647;PMS5003;17137;51.494;-0.262;2024-02-26T02:18:28;3;3;
28647;PMS5003;17137;51.494;-0.262;2024-02-26T02:18:59;2;2;
28647;PMS5003;17137;51.494;-0.262;2024-02-26T02:19:29;2;2;
28647;PMS5003;17137;51.494;-0.262;2024-02-26T02:20:00;2;2;
28647;PMS5003;17137;51.494;-0.262;2024-02-26T02:20:31;4;2;
28647;PMS5003;17137;51.494;-0.262;2024-02-26T02:21:02;4;2;
28647;PMS5003;17137;51.494;-0.262;2024-02-26T02:21:33;4;2;
28647;PMS5003;17137;51.494;-0.262;2024-02-26T02:22:03;5;2;
28647;PMS5003;17137;51.494;-0.262;2024-02-26T02:22:34;5;2;
28647;PMS5003;17137;51.494;-0.262;2024-02-26T02:23:04;5;2;
28647;PMS5003;17137;51.494;-0.262;2024-02-26T02:23:35;5;2;
28647;PMS5003;17137;51.494;-0.262;2024-02-26T02:24:05;5;2;
28647;PMS5003;17137;51.494;-0.262;2024-02-26T02:24:36;5;2;
28647;PMS5003;17137;51.494;-0.262;2024-02-26T02:25:06;5;2;
28647;PMS5003;17137;51.494;-0.262;2024-02-26T02:25:37;1;1;
28647;PMS5003;17137;51.494;-0.262;2024-02-26T02:26:08;1;1;
28647;PMS5003;17137;51.494;-0.262;2024-02-26T02:26:39;1;1;
28647;PMS5003;17137;51.494;-0.262;2024-02-26T02:27:09;1;1;
28647;PMS5003;17137;51.494;-0.262;2024-02-26T02:27:40;1;1;
28647;PMS5003;17137;51.494;-0.262;2024-02-26T02:28:12;1;1;
28647;PMS5003;17137;51.494;-0.262;2024-02-26T02:28:43;1;1;
28647;PMS5003;17137;51.494;-0.262;2024-02-26T02:29:14;1;1;
28647;PMS5003;17137;51.494;-0.262;2024-02-26T02:29:45;1;1;
28647;PMS5003;17137;51.494;-0.262;2024-02-26T02:30:17;1;1;
28647;PMS5003;17137;51.494;-0.262;2024-02-26T02:30:47;1;1;
28647;PMS5003;17137;51.494;-0.262;2024-02-26T02:31:19;1;1;
28647;PMS5003;17137;51.494;-0.262;2024-02-26T02:31:49;1;1;
28647;PMS5003;17137;51.494;-0.262;2024-02-26T02:32:20;1;1;
28647;PMS5003;17137;51.494;-0.262;2024-02-26T02:32:51;1;1;
28647;PMS5003;17137;51.494;-0.262;2024-02-26T02:33:22;1;1;
28647;PMS5003;17137;51.494;-0.262;2024-02-26T02:33:52;0;0;
28647;PMS5003;17137;51.494;-0.262;2024-02-26T02:34:23;0;0;
28647;PMS5003;17137;51.494;-0.262;2024-02-26T02:34:54;0;0;
28647;PMS5003;17137;51.494;-0.262;2024-02-26T02:35:25;0;0;
28647;PMS5003;17137;51.494;-0.262;2024-02-26T02:35:56;0;0;
28647;PMS5003;17137;51.494;-0.262;2024-02-26T02:36:26;0;0;
28647;PMS5003;17137;51.494;-0.262;2024-02-26T02:36:56;0;0;
28647;PMS5003;17137;51.494;-0.262;2024-02-26T02:37:27;0;0;
28647;PMS5003;17137;51.494;-0.262;2024-02-26T02:38:02;0;0;
28647;PMS5003;17137;51.494;-0.262;2024-02-26T02:38:33;0;0;
28647;PMS5003;17137;51.494;-0.262;2024-02-26T02:39:03;0;0;
28647;PMS5003;17137;51.494;-0.262;2024-02-26T02:39:34;0;0;
28647;PMS5003;17137;51.494;-0.262;2024-02-26T02:40:05;0;0;
28647;PMS5003;17137;51.494;-0.262;2024-02-26T02:40:36;0;0;
28647;PMS5003;17137;51.494;-0.262;2024-02-26T02:41:06;0;0;
28647;PMS5003;17137;51.494;-0.262;2024-02-26T02:41:36;0;0;
28647;PMS5003;17137;51.494;-0.262;2024-02-26T02:42:07;1;1;
28647;PMS5003;17137;51.494;-0.262;2024-02-26T02:42:37;1;1;
28647;PMS5003;17137;51.494;-0.262;2024-02-26T02:43:08;1;1;
28647;PMS5003;17137;51.494;-0.262;2024-02-26T02:43:38;1;1;
28647;PMS5003;17137;51.494;-0.262;2024-02-26T02:44:09;1;1;
28647;PMS5003;17137;51.494;-0.262;2024-02-26T02:44:39;1;1;
28647;PMS5003;17137;51.494;-0.262;2024-02-26T02:45:09;1;1;
28647;PMS5003;17137;51.494;-0.262;2024-02-26T02:45:40;1;1;
28647;PMS5003;17137;51.494;-0.262;2024-02-26T02:46:10;1;1;
28647;PMS5003;17137;51.494;-0.262;2024-02-26T02:46:41;1;1;
28647;PMS5003;17137;51.494;-0.262;2024-02-26T02:47:11;1;1;
28647;PMS5003;17137;51.494;-0.262;2024-02-26T02:47:42;1;1;
28647;PMS5003;17137;51.494;-0.262;2024-02-26T02:48:12;1;1;
28647;PMS5003;17137;51.494;-0.262;2024-02-26T02:48:42;1;1;
28647;PMS5003;17137;51.494;-0.262;2024-02-26T02:49:13;0;0;
28647;PMS5003;17137;51.494;-0.262;2024-02-26T02:49:43;0;0;
28647;PMS5003;17137;51.494;-0.262;2024-02-26T02:50:18;0;0;
28647;PMS5003;17137;51.494;-0.262;2024-02-26T02:50:49;0;0;
28647;PMS5003;17137;51.494;-0.262;2024-02-26T02:51:19;0;0;
28647;PMS5003;17137;51.494;-0.262;2024-02-26T02:51:50;0;0;
28647;PMS5003;17137;51.494;-0.262;2024-02-26T02:52:21;0;0;
28647;PMS5003;17137;51.494;-0.262;2024-02-26T02:52:51;0;0;
28647;PMS5003;17137;51.494;-0.262;2024-02-26T02:53:22;0;0;
28647;PMS5003;17137;51.494;-0.262;2024-02-26T02:53:52;0;0;
28647;PMS5003;17137;51.494;-0.262;2024-02-26T02:54:23;0;0;
28647;PMS5003;17137;51.494;-0.262;2024-02-26T02:54:53;0;0;
28647;PMS5003;17137;51.494;-0.262;2024-02-26T02:55:24;0;0;
28647;PMS5003;17137;51.494;-0.262;2024-02-26T02:55:56;0;0;
28647;PMS5003;17137;51.494;-0.262;2024-02-26T02:56:27;0;0;
28647;PMS5003;17137;51.494;-0.262;2024-02-26T02:56:57;0;0;
28647;PMS5003;17137;51.494;-0.262;2024-02-26T02:57:28;0;0;
28647;PMS5003;17137;51.494;-0.262;2024-02-26T02:57:59;0;0;
28647;PMS5003;17137;51.494;-0.262;2024-02-26T02:58:29;1;1;
28647;PMS5003;17137;51.494;-0.262;2024-02-26T02:59:00;1;1;
28647;PMS5003;17137;51.494;-0.262;2024-02-26T02:59:31;1;1;
28647;PMS5003;17137;51.494;-0.262;2024-02-26T03:00:01;1;1;
28647;PMS5003;17137;51.494;-0.262;2024-02-26T03:00:32;1;1;
28647;PMS5003;17137;51.494;-0.262;2024-02-26T03:01:02;1;1;
28647;PMS5003;17137;51.494;-0.262;2024-02-26T03:01:32;1;1;
28647;PMS5003;17137;51.494;-0.262;2024-02-26T03:02:03;1;1;
28647;PMS5003;17137;51.494;-0.262;2024-02-26T03:02:34;0;0;
28647;PMS5003;17137;51.494;-0.262;2024-02-26T03:03:04;0;0;
28647;PMS5003;17137;51.494;-0.262;2024-02-26T03:03:35;0;0;
28647;PMS5003;17137;51.494;-0.262;2024-02-26T03:04:06;1;1;
28647;PMS5003;17137;51.494;-0.262;2024-02-26T03:04:36;1;1;
28647;PMS5003;17137;51.494;-0.262;2024-02-26T03:05:07;1;1;
28647;PMS5003;17137;51.494;-0.262;2024-02-26T03:05:38;1;1;
28647;PMS5003;17137;51.494;-0.262;2024-02-26T03:06:08;1;1;
28647;PMS5003;17137;51.494;-0.262;2024-02-26T03:06:39;0;0;
28647;PMS5003;17137;51.494;-0.262;2024-02-26T03:07:09;0;0;
28647;PMS5003;17137;51.494;-0.262;2024-02-26T03:07:39;0;0;
28647;PMS5003;17137;51.494;-0.262;2024-02-26T03:08:10;0;0;
28647;PMS5003;17137;51.494;-0.262;2024-02-26T03:08:40;0;0;
28647;PMS5003;17137;51.494;-0.262;2024-02-26T03:09:11;0;0;
28647;PMS5003;17137;51.494;-0.262;2024-02-26T03:09:41;0;0;
28647;PMS5003;17137;51.494;-0.262;2024-02-26T03:10:11;0;0;
28647;PMS5003;17137;51.494;-0.262;2024-02-26T03:10:42;0;0;
28647;PMS5003;17137;51.494;-0.262;2024-02-26T03:11:13;0;0;
28647;PMS5003;17137;51.494;-0.262;2024-02-26T03:11:44;0;0;
28647;PMS5003;17137;51.494;-0.262;2024-02-26T03:12:14;1;1;
28647;PMS5003;17137;51.494;-0.262;2024-02-26T03:12:45;1;1;
28647;PMS5003;17137;51.494;-0.262;2024-02-26T03:13:15;1;1;
28647;PMS5003;17137;51.494;-0.262;2024-02-26T03:13:46;1;1;
28647;PMS5003;17137;51.494;-0.262;2024-02-26T03:14:16;1;1;
28647;PMS5003;17137;51.494;-0.262;2024-02-26T03:14:46;3;3;
28647;PMS5003;17137;51.494;-0.262;2024-02-26T03:15:17;3;3;
28647;PMS5003;17137;51.494;-0.262;2024-02-26T03:15:48;2;2;
28647;PMS5003;17137;51.494;-0.262;2024-02-26T03:16:18;2;2;
28647;PMS5003;17137;51.494;-0.262;2024-02-26T03:16:48;2;2;
28647;PMS5003;17137;51.494;-0.262;2024-02-26T03:17:19;2;2;
28647;PMS5003;17137;51.494;-0.262;2024-02-26T03:17:50;2;2;
28647;PMS5003;17137;51.494;-0.262;2024-02-26T03:18:21;2;2;
28647;PMS5003;17137;51.494;-0.262;2024-02-26T03:18:51;2;2;
28647;PMS5003;17137;51.494;-0.262;2024-02-26T03:19:22;2;2;
28647;PMS5003;17137;51.494;-0.262;2024-02-26T03:19:52;2;2;
28647;PMS5003;17137;51.494;-0.262;2024-02-26T03:20:22;2;2;
28647;PMS5003;17137;51.494;-0.262;2024-02-26T03:20:53;2;2;
28647;PMS5003;17137;51.494;-0.262;2024-02-26T03:21:28;2;2;
28647;PMS5003;17137;51.494;-0.262;2024-02-26T03:21:59;2;2;
28647;PMS5003;17137;51.494;-0.262;2024-02-26T03:22:29;2;2;
28647;PMS5003;17137;51.494;-0.262;2024-02-26T03:23:00;1;1;
28647;PMS5003;17137;51.494;-0.262;2024-02-26T03:23:30;1;1;
28647;PMS5003;17137;51.494;-0.262;2024-02-26T03:24:00;1;1;
28647;PMS5003;17137;51.494;-0.262;2024-02-26T03:24:31;1;1;
28647;PMS5003;17137;51.494;-0.262;2024-02-26T03:25:01;1;1;
28647;PMS5003;17137;51.494;-0.262;2024-02-26T03:25:32;1;1;
28647;PMS5003;17137;51.494;-0.262;2024-02-26T03:26:02;2;2;
28647;PMS5003;17137;51.494;-0.262;2024-02-26T03:26:33;2;2;
28647;PMS5003;17137;51.494;-0.262;2024-02-26T03:27:03;2;2;
28647;PMS5003;17137;51.494;-0.262;2024-02-26T03:27:34;2;2;
28647;PMS5003;17137;51.494;-0.262;2024-02-26T03:28:05;2;2;